Time;durP1;ratioP1;P1;durP2;ratioP2;P2;SDS_P1;SDS_P2;PMS_P1;PMS_P2;Temp;Humidity;BMP_temperature;BMP_pressure;BME280_temperature;BME280_humidity;BME280_pressure;Samples;Min_cycle;Max_cycle;Signal;HPM_P1;HPM_P2
2021/10/12 00:02:08;;;;;;;1.05;0.20;;;;;;;;;;4869493;29;20513;-77
2021/10/12 00:04:35;;;;;;;1.08;0.20;;;;;;;;;;4871742;29;20068;-77
2021/10/12 00:07:05;;;;;;;0.75;0.20;;;;;;;;;;4868977;29;20032;-77
2021/10/12 00:09:32;;;;;;;2.60;0.13;;;;;;;;;;4866656;29;20072;-77
2021/10/12 00:11:59;;;;;;;0.85;0.17;;;;;;;;;;4871833;29;20430;-78
2021/10/12 00:14:27;;;;;;;1.50;0.30;;;;;;;;;;4854152;29;20459;-77
2021/10/12 00:16:54;;;;;;;1.25;0.22;;;;;;;;;;4848101;29;20056;-77
2021/10/12 00:19:22;;;;;;;0.95;0.10;;;;;;;;;;4865212;29;20045;-77
2021/10/12 00:21:50;;;;;;;1.48;0.20;;;;;;;;;;4870811;29;20037;-77
2021/10/12 00:24:17;;;;;;;0.63;0.30;;;;;;;;;;4858858;29;20057;-77
2021/10/12 00:26:45;;;;;;;2.38;0.10;;;;;;;;;;4850591;29;20555;-77
2021/10/12 00:29:15;;;;;;;0.65;0.20;;;;;;;;;;4861210;29;20477;-78
2021/10/12 00:31:42;;;;;;;1.13;0.20;;;;;;;;;;4852439;29;20116;-77
2021/10/12 00:34:10;;;;;;;1.13;0.20;;;;;;;;;;4854294;29;20053;-77
2021/10/12 00:36:37;;;;;;;1.08;0.30;;;;;;;;;;4848092;29;20054;-78
2021/10/12 00:39:05;;;;;;;2.33;0.43;;;;;;;;;;4856565;29;20037;-77
2021/10/12 00:41:33;;;;;;;1.17;0.35;;;;;;;;;;4854056;29;20490;-78
2021/10/12 00:44:00;;;;;;;0.55;0.20;;;;;;;;;;4854731;29;20071;-77
2021/10/12 00:46:28;;;;;;;0.60;0.22;;;;;;;;;;4857447;29;20052;-77
2021/10/12 00:48:57;;;;;;;2.97;0.40;;;;;;;;;;4849883;29;20045;-77
2021/10/12 00:51:26;;;;;;;4.07;0.30;;;;;;;;;;4859700;29;20033;-79
2021/10/12 00:53:54;;;;;;;2.03;0.30;;;;;;;;;;4845497;29;20056;-77
2021/10/12 00:56:22;;;;;;;2.25;0.35;;;;;;;;;;4852983;29;20054;-77
2021/10/12 00:58:50;;;;;;;1.27;0.40;;;;;;;;;;4856821;29;20048;-78
2021/10/12 01:01:17;;;;;;;2.70;0.30;;;;;;;;;;4851825;29;20045;-77
2021/10/12 01:03:45;;;;;;;1.10;0.30;;;;;;;;;;4868251;29;20057;-77
2021/10/12 01:06:13;;;;;;;1.92;0.30;;;;;;;;;;4855933;29;20584;-77
2021/10/12 01:08:40;;;;;;;2.33;0.30;;;;;;;;;;4848826;29;20041;-77
2021/10/12 01:11:08;;;;;;;0.82;0.30;;;;;;;;;;4854836;29;20038;-78
2021/10/12 01:13:36;;;;;;;2.28;0.20;;;;;;;;;;4854019;29;20049;-78
2021/10/12 01:16:03;;;;;;;0.93;0.20;;;;;;;;;;4866035;29;20056;-77
2021/10/12 01:18:31;;;;;;;1.52;0.43;;;;;;;;;;4854542;29;20109;-78
2021/10/12 01:20:59;;;;;;;2.53;0.30;;;;;;;;;;4858152;29;20059;-77
2021/10/12 01:23:26;;;;;;;0.70;0.20;;;;;;;;;;4852206;29;20511;-78
2021/10/12 01:25:54;;;;;;;1.50;0.30;;;;;;;;;;4858070;29;20387;-77
2021/10/12 01:28:22;;;;;;;1.70;0.20;;;;;;;;;;4842637;29;20516;-77
2021/10/12 01:30:51;;;;;;;3.00;0.28;;;;;;;;;;4847506;29;20121;-77
2021/10/12 01:33:19;;;;;;;1.85;0.32;;;;;;;;;;4871675;29;20052;-77
2021/10/12 01:35:50;;;;;;;2.28;0.80;;;;;;;;;;4855264;29;20052;-77
2021/10/12 01:38:17;;;;;;;2.65;0.85;;;;;;;;;;4867084;29;20051;-77
2021/10/12 01:40:45;;;;;;;0.60;0.20;;;;;;;;;;4846643;29;20050;-77
2021/10/12 01:43:12;;;;;;;1.15;0.30;;;;;;;;;;4862112;29;20069;-78
2021/10/12 01:45:40;;;;;;;0.80;0.30;;;;;;;;;;4860430;29;20072;-77
2021/10/12 01:48:08;;;;;;;2.42;0.63;;;;;;;;;;4861769;29;20044;-77
2021/10/12 01:50:35;;;;;;;1.13;0.30;;;;;;;;;;4870150;29;20452;-78
2021/10/12 01:53:03;;;;;;;2.70;0.40;;;;;;;;;;4859919;29;20052;-77
2021/10/12 01:55:30;;;;;;;1.73;0.50;;;;;;;;;;4862805;29;20041;-77
2021/10/12 01:57:58;;;;;;;1.23;0.50;;;;;;;;;;4878880;29;20128;-77
2021/10/12 02:00:26;;;;;;;1.90;0.40;;;;;;;;;;4866719;29;20081;-77
2021/10/12 02:02:54;;;;;;;1.83;0.40;;;;;;;;;;4865659;29;20049;-77
2021/10/12 02:05:21;;;;;;;0.98;0.55;;;;;;;;;;4883322;29;20072;-77
2021/10/12 02:07:49;;;;;;;0.95;0.30;;;;;;;;;;4861176;29;20049;-77
2021/10/12 02:10:16;;;;;;;3.05;0.30;;;;;;;;;;4862884;29;20064;-77
2021/10/12 02:12:46;;;;;;;1.27;0.38;;;;;;;;;;4859947;29;20097;-77
2021/10/12 02:15:13;;;;;;;0.50;0.20;;;;;;;;;;4859160;29;20395;-77
2021/10/12 02:17:41;;;;;;;1.02;0.28;;;;;;;;;;4863252;29;20470;-77
2021/10/12 02:20:09;;;;;;;1.75;0.60;;;;;;;;;;4872072;29;20093;-77
2021/10/12 02:22:37;;;;;;;1.30;0.50;;;;;;;;;;4874469;29;20042;-77
2021/10/12 02:25:06;;;;;;;1.40;0.40;;;;;;;;;;4866364;29;20457;-77
2021/10/12 02:27:34;;;;;;;1.17;0.40;;;;;;;;;;4870714;29;20040;-77
2021/10/12 02:30:04;;;;;;;4.40;0.75;;;;;;;;;;4868296;29;20054;-77
2021/10/12 02:32:35;;;;;;;1.48;0.82;;;;;;;;;;4876328;29;20053;-77
2021/10/12 02:35:03;;;;;;;2.45;0.57;;;;;;;;;;4874407;29;20041;-78
2021/10/12 02:37:30;;;;;;;1.88;0.60;;;;;;;;;;4845327;29;20124;-77
2021/10/12 02:39:58;;;;;;;2.20;0.60;;;;;;;;;;4879687;29;20041;-77
2021/10/12 02:42:26;;;;;;;1.27;0.63;;;;;;;;;;4841174;29;20041;-77
2021/10/12 02:44:53;;;;;;;2.28;0.60;;;;;;;;;;4869545;29;20145;-77
2021/10/12 02:47:20;;;;;;;1.48;0.40;;;;;;;;;;4870553;29;20033;-78
2021/10/12 02:49:48;;;;;;;1.63;0.57;;;;;;;;;;4853352;29;20064;-77
2021/10/12 02:52:15;;;;;;;2.60;0.80;;;;;;;;;;4868796;29;20076;-77
2021/10/12 02:54:43;;;;;;;1.45;0.50;;;;;;;;;;4864318;29;20076;-77
2021/10/12 02:57:10;;;;;;;1.05;0.40;;;;;;;;;;4871921;29;20454;-77
2021/10/12 02:59:37;;;;;;;2.30;0.50;;;;;;;;;;4854708;29;20049;-77
2021/10/12 03:02:05;;;;;;;1.60;0.32;;;;;;;;;;4873572;29;20041;-77
2021/10/12 03:04:32;;;;;;;3.28;0.43;;;;;;;;;;4868621;29;20040;-77
2021/10/12 03:06:59;;;;;;;1.13;0.30;;;;;;;;;;4864593;29;20585;-77
2021/10/12 03:09:27;;;;;;;2.15;0.50;;;;;;;;;;4875461;29;20128;-77
2021/10/12 03:11:54;;;;;;;1.35;0.40;;;;;;;;;;4875264;29;20045;-77
2021/10/12 03:14:21;;;;;;;0.60;0.30;;;;;;;;;;4868784;29;20045;-77
2021/10/12 03:16:49;;;;;;;0.77;0.30;;;;;;;;;;4860640;29;20049;-77
2021/10/12 03:19:17;;;;;;;1.95;0.30;;;;;;;;;;4874205;29;20125;-78
2021/10/12 03:21:58;;;;;;;0.75;0.20;;;;;;;;;;4877299;29;20037;-77
2021/10/12 03:24:25;;;;;;;1.27;0.30;;;;;;;;;;4866311;29;20109;-77
2021/10/12 03:26:53;;;;;;;4.13;0.30;;;;;;;;;;4875069;29;20037;-77
2021/10/12 03:29:20;;;;;;;1.00;0.28;;;;;;;;;;4874523;29;20080;-77
2021/10/12 03:31:47;;;;;;;2.85;0.20;;;;;;;;;;4860222;29;20483;-77
2021/10/12 03:34:15;;;;;;;0.50;0.20;;;;;;;;;;4858510;29;20049;-77
2021/10/12 03:36:42;;;;;;;1.17;0.20;;;;;;;;;;4875545;29;20060;-77
2021/10/12 03:39:09;;;;;;;1.33;0.20;;;;;;;;;;4853770;29;20057;-77
2021/10/12 03:41:37;;;;;;;1.40;0.30;;;;;;;;;;4874283;29;21965;-78
2021/10/12 03:44:04;;;;;;;0.25;0.10;;;;;;;;;;4871928;29;20041;-77
2021/10/12 03:46:32;;;;;;;0.57;0.30;;;;;;;;;;4869258;29;20514;-77
2021/10/12 03:48:59;;;;;;;2.50;0.20;;;;;;;;;;4858077;29;20045;-77
2021/10/12 03:51:26;;;;;;;0.73;0.20;;;;;;;;;;4880226;29;20089;-77
2021/10/12 03:53:54;;;;;;;0.52;0.10;;;;;;;;;;4861335;29;20048;-77
2021/10/12 03:56:21;;;;;;;1.33;0.63;;;;;;;;;;4858196;29;20049;-76
2021/10/12 03:58:49;;;;;;;0.40;0.10;;;;;;;;;;4874249;29;21781;-76
2021/10/12 04:01:16;;;;;;;2.20;0.25;;;;;;;;;;4868845;29;20524;-76
2021/10/12 04:03:45;;;;;;;0.52;0.13;;;;;;;;;;4867714;29;20067;-76
2021/10/12 04:06:13;;;;;;;0.80;0.20;;;;;;;;;;4866369;29;20114;-76
2021/10/12 04:08:41;;;;;;;1.10;0.20;;;;;;;;;;4857539;29;20033;-76
2021/10/12 04:11:08;;;;;;;0.85;0.10;;;;;;;;;;4859615;29;20080;-76
2021/10/12 04:13:36;;;;;;;0.98;0.10;;;;;;;;;;4853340;29;20844;-77
2021/10/12 04:16:03;;;;;;;0.52;0.20;;;;;;;;;;4873230;29;20045;-76
2021/10/12 04:18:31;;;;;;;0.63;0.17;;;;;;;;;;4871153;29;20068;-76
2021/10/12 04:20:58;;;;;;;4.00;0.50;;;;;;;;;;4866308;29;20132;-76
2021/10/12 04:23:25;;;;;;;1.00;0.20;;;;;;;;;;4868943;29;20498;-76
2021/10/12 04:25:53;;;;;;;0.63;0.10;;;;;;;;;;4853268;29;20057;-76
2021/10/12 04:28:20;;;;;;;1.13;0.20;;;;;;;;;;4844720;29;20073;-76
2021/10/12 04:30:48;;;;;;;1.15;0.20;;;;;;;;;;4856082;29;20121;-76
2021/10/12 04:33:15;;;;;;;1.17;0.20;;;;;;;;;;4843954;29;20069;-76
2021/10/12 04:35:43;;;;;;;1.67;0.25;;;;;;;;;;4852747;29;20129;-76
2021/10/12 04:38:10;;;;;;;2.15;0.20;;;;;;;;;;4852556;29;20242;-76
2021/10/12 04:40:39;;;;;;;1.48;0.20;;;;;;;;;;4854185;29;20109;-76
2021/10/12 04:43:08;;;;;;;0.70;0.30;;;;;;;;;;4853609;29;20034;-76
2021/10/12 04:45:38;;;;;;;1.35;0.35;;;;;;;;;;4854091;29;20117;-76
2021/10/12 04:48:06;;;;;;;0.50;0.10;;;;;;;;;;4855841;29;20180;-76
2021/10/12 04:50:33;;;;;;;1.02;0.20;;;;;;;;;;4868047;29;20045;-76
2021/10/12 04:53:01;;;;;;;1.55;0.20;;;;;;;;;;4849335;29;20097;-76
2021/10/12 04:55:30;;;;;;;0.75;0.25;;;;;;;;;;4854204;29;20232;-76
2021/10/12 04:57:58;;;;;;;0.40;0.20;;;;;;;;;;4850437;29;20042;-76
2021/10/12 05:00:25;;;;;;;0.82;0.28;;;;;;;;;;4854722;29;20064;-77
2021/10/12 05:02:53;;;;;;;1.58;0.20;;;;;;;;;;4848680;29;20052;-76
2021/10/12 05:05:20;;;;;;;2.50;0.30;;;;;;;;;;4853697;29;20124;-76
2021/10/12 05:07:47;;;;;;;0.77;0.20;;;;;;;;;;4851138;29;20034;-76
2021/10/12 05:10:15;;;;;;;3.15;0.30;;;;;;;;;;4824075;29;20136;-76
2021/10/12 05:12:43;;;;;;;0.88;0.20;;;;;;;;;;4854722;29;20040;-77
2021/10/12 05:15:11;;;;;;;0.65;0.17;;;;;;;;;;4852684;29;20078;-76
2021/10/12 05:17:46;;;;;;;1.63;0.30;;;;;;;;;;4855661;29;20046;-76
2021/10/12 05:20:15;;;;;;;0.85;0.30;;;;;;;;;;4849688;29;20042;-77
2021/10/12 05:22:42;;;;;;;1.75;0.30;;;;;;;;;;4848083;29;20120;-77
2021/10/12 05:25:09;;;;;;;1.30;0.40;;;;;;;;;;4850322;29;20130;-76
2021/10/12 05:27:38;;;;;;;0.73;0.25;;;;;;;;;;4856663;29;20065;-76
2021/10/12 05:30:06;;;;;;;2.72;0.40;;;;;;;;;;4852052;29;20523;-77
2021/10/12 05:32:35;;;;;;;1.85;0.20;;;;;;;;;;4851127;29;20554;-77
2021/10/12 05:35:03;;;;;;;1.30;0.30;;;;;;;;;;4847230;29;20038;-76
2021/10/12 05:37:30;;;;;;;1.45;0.43;;;;;;;;;;4850802;29;20128;-76
2021/10/12 05:39:58;;;;;;;0.90;0.30;;;;;;;;;;4841017;29;20499;-77
2021/10/12 05:42:25;;;;;;;2.00;0.30;;;;;;;;;;4867078;29;20499;-76
2021/10/12 05:44:52;;;;;;;0.85;0.32;;;;;;;;;;4852953;29;20037;-76
2021/10/12 05:47:20;;;;;;;1.10;0.43;;;;;;;;;;4856529;29;20053;-76
2021/10/12 05:49:47;;;;;;;0.77;0.20;;;;;;;;;;4866338;29;20084;-76
2021/10/12 05:52:18;;;;;;;1.20;0.30;;;;;;;;;;4855166;29;20073;-76
2021/10/12 05:55:07;;;;;;;1.17;0.20;;;;;;;;;;4849767;29;20113;-76
2021/10/12 05:58:05;;;;;;;1.00;0.50;;;;;;;;;;4842971;29;20042;-77
2021/10/12 06:00:22;;;;;;;1.17;0.30;;;;;;;;;;4848422;29;20046;-77
2021/10/12 06:02:49;;;;;;;1.00;0.30;;;;;;;;;;4852393;29;20098;-77
2021/10/12 06:05:17;;;;;;;1.42;0.50;;;;;;;;;;4841197;29;20046;-76
2021/10/12 06:07:45;;;;;;;1.35;0.40;;;;;;;;;;4851100;29;20056;-76
2021/10/12 06:10:12;;;;;;;2.42;0.60;;;;;;;;;;4851966;29;20073;-77
2021/10/12 06:12:39;;;;;;;1.60;0.30;;;;;;;;;;4851521;29;20044;-76
2021/10/12 06:15:07;;;;;;;3.35;1.27;;;;;;;;;;4849772;29;20391;-77
2021/10/12 06:17:34;;;;;;;3.58;1.02;;;;;;;;;;4859155;29;20041;-77
2021/10/12 06:20:01;;;;;;;3.05;1.00;;;;;;;;;;4837071;29;20431;-76
2021/10/12 06:22:29;;;;;;;1.60;0.65;;;;;;;;;;4849872;29;20051;-76
2021/10/12 06:24:56;;;;;;;2.85;1.42;;;;;;;;;;4858971;29;20140;-76
2021/10/12 06:27:24;;;;;;;2.22;0.93;;;;;;;;;;4877029;29;20491;-77
2021/10/12 06:29:51;;;;;;;3.70;0.98;;;;;;;;;;4856222;29;20120;-77
2021/10/12 06:32:18;;;;;;;4.95;1.27;;;;;;;;;;4875503;29;20036;-76
2021/10/12 06:34:49;;;;;;;2.50;1.27;;;;;;;;;;4857027;29;20037;-75
2021/10/12 06:37:16;;;;;;;2.78;0.93;;;;;;;;;;4869303;29;20072;-76
2021/10/12 06:39:43;;;;;;;2.78;1.10;;;;;;;;;;4873050;29;20211;-77
2021/10/12 06:42:11;;;;;;;1.67;0.88;;;;;;;;;;4877898;29;20064;-75
2021/10/12 06:44:38;;;;;;;3.53;1.10;;;;;;;;;;4858413;29;20052;-75
2021/10/12 06:47:05;;;;;;;2.08;1.15;;;;;;;;;;4876072;29;20047;-76
2021/10/12 06:49:33;;;;;;;2.97;1.55;;;;;;;;;;4881239;29;20100;-76
2021/10/12 06:52:00;;;;;;;4.28;1.52;;;;;;;;;;4881527;29;20093;-78
2021/10/12 06:54:27;;;;;;;2.50;1.10;;;;;;;;;;4869006;29;20076;-77
2021/10/12 06:56:58;;;;;;;4.95;2.30;;;;;;;;;;4864459;29;20041;-77
2021/10/12 06:59:26;;;;;;;3.33;1.65;;;;;;;;;;4881562;29;20049;-76
2021/10/12 07:01:54;;;;;;;4.25;1.50;;;;;;;;;;4864721;29;20037;-77
2021/10/12 07:04:22;;;;;;;2.67;0.80;;;;;;;;;;4881423;29;20051;-77
2021/10/12 07:06:49;;;;;;;2.92;0.80;;;;;;;;;;4864229;29;20053;-78
2021/10/12 07:09:16;;;;;;;4.05;1.70;;;;;;;;;;4860268;29;20401;-76
2021/10/12 07:11:44;;;;;;;3.78;1.77;;;;;;;;;;4881078;29;20109;-79
2021/10/12 07:14:12;;;;;;;3.35;1.35;;;;;;;;;;4851698;29;20491;-78
2021/10/12 07:16:39;;;;;;;2.83;1.50;;;;;;;;;;4864618;29;20498;-78
2021/10/12 07:19:07;;;;;;;3.53;1.60;;;;;;;;;;4881063;29;20455;-77
2021/10/12 07:21:35;;;;;;;3.10;1.67;;;;;;;;;;4856171;29;20046;-78
2021/10/12 07:24:02;;;;;;;2.67;1.23;;;;;;;;;;4859162;29;20147;-78
2021/10/12 07:26:30;;;;;;;3.80;1.75;;;;;;;;;;4856534;29;20040;-76
2021/10/12 07:28:58;;;;;;;5.13;1.92;;;;;;;;;;4875755;29;20041;-76
2021/10/12 07:31:26;;;;;;;2.78;1.40;;;;;;;;;;4877989;29;20109;-76
2021/10/12 07:33:54;;;;;;;2.35;0.82;;;;;;;;;;4881551;29;20045;-77
2021/10/12 07:36:21;;;;;;;3.38;1.52;;;;;;;;;;4884601;29;20401;-76
2021/10/12 07:38:49;;;;;;;5.22;2.28;;;;;;;;;;4873206;29;20045;-76
2021/10/12 07:41:26;;;;;;;4.28;1.63;;;;;;;;;;4885499;29;20443;-78
2021/10/12 07:43:54;;;;;;;3.63;1.40;;;;;;;;;;4861513;29;21912;-78
2021/10/12 07:46:21;;;;;;;3.72;1.73;;;;;;;;;;4857654;29;20105;-77
2021/10/12 07:48:51;;;;;;;3.97;1.60;;;;;;;;;;4884533;29;20097;-77
2021/10/12 07:51:38;;;;;;;4.15;1.70;;;;;;;;;;4881946;29;20051;-77
2021/10/12 07:54:11;;;;;;;4.30;1.67;;;;;;;;;;4881891;29;20037;-78
2021/10/12 07:56:39;;;;;;;4.00;1.65;;;;;;;;;;4876840;29;20049;-77
2021/10/12 07:59:07;;;;;;;3.20;1.45;;;;;;;;;;4863981;29;20045;-78
2021/10/12 08:01:35;;;;;;;2.03;0.90;;;;;;;;;;4892444;29;20076;-77
2021/10/12 08:04:08;;;;;;;3.42;0.80;;;;;;;;;;4865353;29;20033;-78
2021/10/12 08:06:35;;;;;;;2.08;1.00;;;;;;;;;;4881446;29;20045;-78
2021/10/12 08:09:06;;;;;;;2.00;0.82;;;;;;;;;;4864396;29;20065;-78
2021/10/12 08:11:34;;;;;;;3.75;1.10;;;;;;;;;;4874155;29;20048;-78
2021/10/12 08:14:04;;;;;;;5.05;1.30;;;;;;;;;;4885384;29;20109;-78
2021/10/12 08:16:32;;;;;;;2.60;1.35;;;;;;;;;;4890682;29;20505;-78
2021/10/12 08:19:00;;;;;;;4.38;0.80;;;;;;;;;;4885655;29;20045;-78
2021/10/12 08:21:29;;;;;;;2.80;1.63;;;;;;;;;;4872981;29;20036;-78
2021/10/12 08:23:57;;;;;;;2.33;1.02;;;;;;;;;;4887288;29;20073;-78
2021/10/12 08:26:26;;;;;;;4.65;1.20;;;;;;;;;;4880894;29;20390;-78
2021/10/12 08:28:55;;;;;;;5.18;1.60;;;;;;;;;;4864551;29;20033;-78
2021/10/12 08:31:26;;;;;;;5.68;2.75;;;;;;;;;;4881568;29;20064;-79
2021/10/12 08:33:53;;;;;;;5.43;1.55;;;;;;;;;;4860446;29;20436;-77
2021/10/12 08:36:21;;;;;;;5.60;1.73;;;;;;;;;;4881636;29;20049;-77
2021/10/12 08:39:05;;;;;;;3.97;1.60;;;;;;;;;;4862851;29;20080;-78
2021/10/12 08:41:37;;;;;;;4.35;1.50;;;;;;;;;;4878946;29;20403;-77
2021/10/12 08:44:05;;;;;;;2.75;1.40;;;;;;;;;;4874340;29;20062;-79
2021/10/12 08:46:35;;;;;;;3.65;0.90;;;;;;;;;;4882552;29;20033;-78
2021/10/12 08:49:03;;;;;;;1.67;0.70;;;;;;;;;;4872746;29;20053;-78
2021/10/12 08:51:30;;;;;;;2.55;0.60;;;;;;;;;;4865492;29;20040;-77
2021/10/12 08:53:57;;;;;;;2.13;0.80;;;;;;;;;;4881095;29;20494;-78
2021/10/12 08:56:25;;;;;;;5.53;1.05;;;;;;;;;;4863552;29;20077;-78
2021/10/12 08:58:52;;;;;;;1.55;0.55;;;;;;;;;;4879747;29;20055;-78
2021/10/12 09:01:20;;;;;;;2.45;0.88;;;;;;;;;;4889181;29;20049;-78
2021/10/12 09:06:28;;;;;;;1.15;0.50;;;;;;;;;;4879499;29;20049;-76
2021/10/12 09:09:19;;;;;;;1.65;0.50;;;;;;;;;;4879694;29;20523;-83
2021/10/12 09:11:46;;;;;;;2.53;0.68;;;;;;;;;;4876004;29;20045;-85
2021/10/12 09:14:14;;;;;;;1.90;0.77;;;;;;;;;;4864146;29;20059;-87
2021/10/12 09:16:43;;;;;;;1.48;0.50;;;;;;;;;;4847653;29;20132;-85
2021/10/12 09:19:15;;;;;;;2.92;0.88;;;;;;;;;;4853240;29;20052;-85
2021/10/12 09:21:44;;;;;;;1.33;0.47;;;;;;;;;;4861126;29;20056;-81
2021/10/12 09:24:14;;;;;;;1.63;0.70;;;;;;;;;;4875051;29;20136;-82
2021/10/12 09:27:03;;;;;;;1.65;0.60;;;;;;;;;;4863564;29;20048;-83
2021/10/12 09:29:33;;;;;;;1.13;0.43;;;;;;;;;;4879277;29;20040;-80
2021/10/12 09:32:04;;;;;;;3.45;0.82;;;;;;;;;;4891963;29;20119;-81
2021/10/12 09:34:31;;;;;;;2.17;0.73;;;;;;;;;;4863777;29;20136;-81
2021/10/12 09:36:59;;;;;;;2.58;0.63;;;;;;;;;;4852347;29;20056;-82
2021/10/12 09:39:32;;;;;;;4.47;1.52;;;;;;;;;;4865465;29;20048;-79
2021/10/12 09:42:03;;;;;;;1.98;0.82;;;;;;;;;;4888638;29;20045;-79
2021/10/12 09:44:32;;;;;;;3.47;1.55;;;;;;;;;;4870254;29;20045;-78
2021/10/12 09:47:08;;;;;;;3.05;1.13;;;;;;;;;;4880964;29;20033;-78
2021/10/12 09:49:35;;;;;;;3.28;1.40;;;;;;;;;;4881635;29;20390;-79
2021/10/12 09:52:10;;;;;;;4.93;1.75;;;;;;;;;;4864436;29;20041;-79
2021/10/12 09:54:38;;;;;;;2.53;1.35;;;;;;;;;;4870750;29;20065;-79
2021/10/12 09:57:07;;;;;;;4.45;1.42;;;;;;;;;;4874808;29;20509;-80
2021/10/12 09:59:35;;;;;;;2.47;1.20;;;;;;;;;;4884323;29;20152;-80
2021/10/12 10:02:02;;;;;;;2.80;1.38;;;;;;;;;;4868951;29;20620;-81
2021/10/12 10:04:36;;;;;;;2.42;1.27;;;;;;;;;;4884681;29;20044;-79
2021/10/12 10:07:05;;;;;;;2.90;1.30;;;;;;;;;;4862991;29;20041;-80
2021/10/12 10:09:34;;;;;;;2.67;1.25;;;;;;;;;;4877632;29;20112;-79
2021/10/12 10:12:01;;;;;;;3.08;1.48;;;;;;;;;;4867886;29;20049;-78
2021/10/12 10:14:30;;;;;;;1.80;0.85;;;;;;;;;;4887241;29;20083;-75
2021/10/12 10:16:59;;;;;;;2.05;1.10;;;;;;;;;;4893844;29;20076;-75
2021/10/12 10:19:34;;;;;;;3.63;0.93;;;;;;;;;;4893877;29;20069;-75
2021/10/12 10:22:01;;;;;;;3.22;0.90;;;;;;;;;;4868567;29;20136;-75
2021/10/12 10:24:33;;;;;;;1.55;0.70;;;;;;;;;;4881527;29;20057;-75
2021/10/12 10:27:03;;;;;;;4.22;0.90;;;;;;;;;;4874356;29;20084;-75
2021/10/12 10:29:38;;;;;;;2.50;0.75;;;;;;;;;;4871965;29;20044;-75
2021/10/12 10:32:22;;;;;;;2.90;1.08;;;;;;;;;;4864925;29;20052;-71
2021/10/12 10:35:00;;;;;;;1.75;0.70;;;;;;;;;;4843241;29;20707;-72
2021/10/12 10:37:29;;;;;;;1.40;0.63;;;;;;;;;;4860069;29;20087;-72
2021/10/12 10:39:57;;;;;;;0.77;0.40;;;;;;;;;;4860479;29;20408;-73
2021/10/12 10:42:28;;;;;;;2.95;0.60;;;;;;;;;;4868164;29;20375;-72
2021/10/12 10:44:56;;;;;;;2.00;0.60;;;;;;;;;;4869869;29;20120;-72
2021/10/12 10:47:42;;;;;;;2.20;0.52;;;;;;;;;;4874707;29;20120;-72
2021/10/12 10:50:09;;;;;;;1.70;0.50;;;;;;;;;;4879664;29;20395;-72
2021/10/12 10:52:44;;;;;;;1.85;0.50;;;;;;;;;;4864174;29;20041;-72
2021/10/12 10:55:12;;;;;;;1.58;0.82;;;;;;;;;;4880127;29;20104;-72
2021/10/12 10:57:59;;;;;;;1.50;0.32;;;;;;;;;;4847409;29;20457;-71
2021/10/12 11:00:28;;;;;;;1.40;0.40;;;;;;;;;;4877415;29;20473;-71
2021/10/12 11:02:56;;;;;;;1.05;0.40;;;;;;;;;;4877607;29;20402;-72
2021/10/12 11:05:30;;;;;;;1.65;0.30;;;;;;;;;;4891172;29;20101;-72
2021/10/12 11:08:14;;;;;;;0.95;0.30;;;;;;;;;;4889599;29;20052;-84
2021/10/12 11:10:43;;;;;;;1.17;0.30;;;;;;;;;;4877566;29;20068;-71
2021/10/12 11:13:11;;;;;;;1.73;0.35;;;;;;;;;;4862887;29;20073;-72
2021/10/12 11:15:49;;;;;;;0.90;0.22;;;;;;;;;;4862919;29;20425;-72
2021/10/12 11:18:16;;;;;;;1.38;0.20;;;;;;;;;;4840705;29;20049;-72
2021/10/12 11:20:45;;;;;;;0.63;0.30;;;;;;;;;;4863039;29;20069;-72
2021/10/12 11:23:14;;;;;;;0.65;0.20;;;;;;;;;;4879314;29;20401;-72
2021/10/12 11:25:42;;;;;;;0.98;0.30;;;;;;;;;;4856173;29;20046;-72
2021/10/12 11:28:11;;;;;;;0.17;0.13;;;;;;;;;;4859634;29;20037;-72
2021/10/12 11:30:40;;;;;;;0.55;0.20;;;;;;;;;;4860789;29;20048;-72
2021/10/12 11:33:07;;;;;;;2.15;0.20;;;;;;;;;;4860531;29;20176;-71
2021/10/12 11:35:37;;;;;;;0.47;0.17;;;;;;;;;;4853593;29;20498;-73
2021/10/12 11:38:06;;;;;;;1.40;0.10;;;;;;;;;;4859627;29;20076;-73
2021/10/12 11:40:37;;;;;;;0.28;0.10;;;;;;;;;;4858698;29;20041;-73
2021/10/12 11:43:06;;;;;;;0.70;0.00;;;;;;;;;;4859918;29;20045;-72
2021/10/12 11:45:34;;;;;;;0.55;0.10;;;;;;;;;;4858371;29;20049;-74
2021/10/12 11:48:01;;;;;;;0.55;0.10;;;;;;;;;;4859280;29;20069;-73
2021/10/12 11:50:29;;;;;;;0.30;0.10;;;;;;;;;;4860695;29;20057;-73
2021/10/12 11:52:58;;;;;;;0.10;0.10;;;;;;;;;;4843998;29;20041;-74
2021/10/12 11:55:27;;;;;;;0.30;0.00;;;;;;;;;;4857254;29;20105;-73
2021/10/12 11:57:55;;;;;;;0.50;0.10;;;;;;;;;;4860655;29;20075;-72
2021/10/12 12:00:37;;;;;;;0.30;0.10;;;;;;;;;;4860976;29;20088;-76
2021/10/12 12:03:18;;;;;;;0.00;0.00;;;;;;;;;;4852937;29;20038;-77
2021/10/12 12:05:53;;;;;;;0.10;0.00;;;;;;;;;;4861202;29;20068;-77
2021/10/12 12:08:20;;;;;;;0.65;0.35;;;;;;;;;;4861518;29;20048;-77
2021/10/12 12:10:48;;;;;;;0.28;0.08;;;;;;;;;;4868284;29;20469;-78
2021/10/12 12:13:16;;;;;;;0.20;0.00;;;;;;;;;;4857523;29;20052;-76
2021/10/12 12:15:43;;;;;;;0.82;0.00;;;;;;;;;;4862828;29;20120;-75
2021/10/12 12:18:15;;;;;;;0.00;0.00;;;;;;;;;;4858112;29;20058;-75
2021/10/12 12:21:09;;;;;;;1.38;0.00;;;;;;;;;;4850678;29;20098;-76
2021/10/12 12:23:40;;;;;;;3.63;0.55;;;;;;;;;;4845453;29;20110;-76
2021/10/12 12:26:11;;;;;;;15.13;5.40;;;;;;;;;;4873904;29;20418;-82
2021/10/12 12:28:40;;;;;;;7.35;2.58;;;;;;;;;;4871063;29;20060;-81
2021/10/12 12:31:20;;;;;;;5.07;1.70;;;;;;;;;;4866245;29;20534;-81
2021/10/12 12:33:48;;;;;;;4.20;1.42;;;;;;;;;;4865681;29;20052;-77
2021/10/12 12:36:17;;;;;;;3.50;0.98;;;;;;;;;;4865062;29;20486;-76
2021/10/12 12:38:45;;;;;;;3.67;0.88;;;;;;;;;;4879282;29;20037;-76
2021/10/12 12:41:17;;;;;;;1.75;0.50;;;;;;;;;;4856856;29;20077;-72
2021/10/12 12:43:52;;;;;;;2.35;0.40;;;;;;;;;;4858170;29;20045;-71
2021/10/12 12:46:20;;;;;;;3.00;0.40;;;;;;;;;;4860644;29;20044;-71
2021/10/12 12:49:06;;;;;;;1.17;0.30;;;;;;;;;;4868302;29;21721;-72
2021/10/12 12:51:38;;;;;;;0.93;0.28;;;;;;;;;;4888719;29;20121;-71
2021/10/12 12:54:06;;;;;;;2.53;0.30;;;;;;;;;;4846165;29;20052;-72
2021/10/12 12:56:35;;;;;;;1.02;0.10;;;;;;;;;;4860594;29;20145;-72
2021/10/12 12:59:10;;;;;;;1.15;0.20;;;;;;;;;;4860800;29;20045;-71
2021/10/12 13:01:40;;;;;;;1.35;0.10;;;;;;;;;;4878041;29;20048;-72
2021/10/12 13:04:07;;;;;;;1.60;0.28;;;;;;;;;;4877801;29;20041;-71
2021/10/12 13:06:35;;;;;;;3.88;0.40;;;;;;;;;;4861254;29;20450;-72
2021/10/12 13:09:03;;;;;;;1.48;0.30;;;;;;;;;;4876832;29;20056;-72
2021/10/12 13:11:35;;;;;;;0.80;0.13;;;;;;;;;;4877287;29;20045;-71
2021/10/12 13:14:02;;;;;;;0.28;0.00;;;;;;;;;;4875853;29;20052;-71
2021/10/12 13:16:30;;;;;;;0.40;0.10;;;;;;;;;;4861475;29;20045;-71
2021/10/12 13:18:57;;;;;;;0.10;0.05;;;;;;;;;;4877708;29;20127;-72
2021/10/12 13:21:25;;;;;;;1.42;0.20;;;;;;;;;;4860954;29;20075;-72
2021/10/12 13:23:55;;;;;;;0.93;0.10;;;;;;;;;;4861625;29;20037;-72
2021/10/12 13:26:25;;;;;;;1.38;0.13;;;;;;;;;;4863564;29;20093;-71
2021/10/12 13:28:52;;;;;;;2.65;0.10;;;;;;;;;;4862034;29;20066;-72
2021/10/12 13:31:23;;;;;;;1.77;0.45;;;;;;;;;;4860556;29;20147;-73
2021/10/12 13:33:55;;;;;;;0.95;0.15;;;;;;;;;;4876937;29;20413;-72
2021/10/12 13:36:22;;;;;;;1.90;0.20;;;;;;;;;;4877554;29;20105;-73
2021/10/12 13:38:49;;;;;;;2.90;0.20;;;;;;;;;;4878452;29;20077;-73
2021/10/12 13:41:19;;;;;;;1.63;0.10;;;;;;;;;;4878343;29;20140;-73
2021/10/12 13:43:46;;;;;;;2.15;0.20;;;;;;;;;;4877689;29;20055;-73
2021/10/12 13:46:15;;;;;;;1.90;0.20;;;;;;;;;;4878249;29;20131;-73
2021/10/12 13:48:44;;;;;;;0.80;0.10;;;;;;;;;;4884795;29;20037;-73
2021/10/12 13:51:14;;;;;;;1.40;0.20;;;;;;;;;;4865378;29;20045;-73
2021/10/12 13:53:42;;;;;;;1.90;0.20;;;;;;;;;;4876938;29;20112;-73
2021/10/12 13:56:09;;;;;;;0.50;0.10;;;;;;;;;;4877065;29;20084;-73
2021/10/12 13:58:37;;;;;;;0.98;0.20;;;;;;;;;;4864628;29;20494;-73
2021/10/12 14:01:06;;;;;;;1.85;0.10;;;;;;;;;;4860457;29;20049;-72
2021/10/12 14:03:36;;;;;;;1.20;0.20;;;;;;;;;;4876273;29;20517;-72
2021/10/12 14:06:03;;;;;;;0.82;0.20;;;;;;;;;;4860873;29;20123;-72
2021/10/12 14:08:33;;;;;;;2.17;0.10;;;;;;;;;;4873391;29;20052;-71
2021/10/12 14:11:00;;;;;;;1.55;0.30;;;;;;;;;;4861113;29;20479;-72
2021/10/12 14:13:31;;;;;;;1.98;0.32;;;;;;;;;;4860976;29;20055;-72
2021/10/12 14:16:03;;;;;;;0.57;0.20;;;;;;;;;;4861395;29;20073;-71
2021/10/12 14:18:31;;;;;;;1.40;0.10;;;;;;;;;;4860553;29;20080;-72
2021/10/12 14:20:58;;;;;;;1.83;0.10;;;;;;;;;;4859206;29;20198;-72
2021/10/12 14:23:27;;;;;;;1.75;0.10;;;;;;;;;;4869233;29;20081;-72
2021/10/12 14:25:54;;;;;;;0.32;0.10;;;;;;;;;;4887039;29;20057;-72
2021/10/12 14:28:22;;;;;;;3.70;0.20;;;;;;;;;;4877083;29;20077;-71
2021/10/12 14:30:50;;;;;;;0.43;0.17;;;;;;;;;;4860518;29;20386;-72
2021/10/12 14:33:17;;;;;;;0.85;0.10;;;;;;;;;;4873025;29;20405;-73
2021/10/12 14:35:45;;;;;;;1.85;0.20;;;;;;;;;;4845519;29;20088;-73
2021/10/12 14:38:12;;;;;;;2.42;0.20;;;;;;;;;;4876996;29;20053;-72
2021/10/12 14:40:41;;;;;;;1.30;0.20;;;;;;;;;;4875539;29;20390;-72
2021/10/12 14:43:09;;;;;;;2.47;0.30;;;;;;;;;;4876318;29;20120;-72
2021/10/12 14:45:37;;;;;;;0.82;0.20;;;;;;;;;;4861740;29;20052;-73
2021/10/12 14:48:04;;;;;;;1.40;0.30;;;;;;;;;;4862913;29;20052;-73
2021/10/12 14:50:32;;;;;;;1.92;0.47;;;;;;;;;;4880179;29;20053;-72
2021/10/12 14:53:00;;;;;;;0.75;0.13;;;;;;;;;;4863707;29;20537;-73
2021/10/12 14:55:27;;;;;;;0.30;0.13;;;;;;;;;;4863141;29;20056;-73
2021/10/12 14:57:55;;;;;;;1.83;0.20;;;;;;;;;;4879894;29;20128;-73